Bethlehem Airport

Airport
ICAO code: 
FABM
Summary
ICAO Region: 
AFI
Territory: 
Location: 
, Free State
Serving: 
Bethlehem
Elevation: 
5561 ft
Coordinates: 
Aerial View: 
28° 14' 54.211" S, 28° 20' 10.05" E
Metar
Observation
FABM 240555Z 32001KT CAVOK 16/10 Q1027
Station
Bethlehem Airport
Date/Time
2022-01-24 05:55:00
Wind direction
320°
Wind speed
01 kts
Lowest cloud amount
clouds and visibility OK
Temperature
16°C
Dew point
10°C
Humidity
67%
QNH
1027 hPa
Weather condition
n/a

Runways

Designator Length Width Surface Rops
11/29 1175 15 ASP No/No
13/31 1311 46 GRS No/No
Airport map: 
Aerial View: 

SKYbrary Partners:

Safety knowledge contributed by: